createdAt,value
2018-08-12T00:00:19.586Z,3.23
2018-08-12T00:02:48.785Z,3.90
2018-08-12T00:05:17.944Z,3.97
2018-08-12T00:07:47.372Z,5.23
2018-08-12T00:10:16.585Z,3.80
2018-08-12T00:12:45.798Z,4.80
2018-08-12T00:15:17.485Z,3.73
2018-08-12T00:17:46.617Z,5.57
2018-08-12T00:20:18.708Z,3.87
2018-08-12T00:22:48.566Z,3.13
2018-08-12T00:25:19.200Z,4.20
2018-08-12T00:27:48.410Z,3.20
2018-08-12T00:30:18.600Z,5.30
2018-08-12T00:32:47.824Z,4.53
2018-08-12T00:35:18.057Z,3.53
2018-08-12T00:37:53.810Z,5.07
2018-08-12T00:40:22.980Z,3.60
2018-08-12T00:42:52.141Z,3.17
2018-08-12T00:45:21.789Z,3.10
2018-08-12T00:47:51.198Z,4.23
2018-08-12T00:50:20.686Z,3.33
2018-08-12T00:52:49.877Z,4.27
2018-08-12T00:55:19.378Z,3.20
2018-08-12T00:57:49.042Z,3.30
2018-08-12T01:00:20.469Z,4.17
2018-08-12T01:02:56.254Z,3.20
2018-08-12T01:05:25.445Z,2.50
2018-08-12T01:07:54.638Z,4.10
2018-08-12T01:10:23.797Z,3.77
2018-08-12T01:12:52.982Z,4.73
2018-08-12T01:15:22.650Z,5.03
2018-08-12T01:17:51.809Z,3.10
2018-08-12T01:20:25.831Z,3.97
2018-08-12T01:22:54.982Z,3.20
2018-08-12T01:25:24.346Z,2.90
2018-08-12T01:27:53.569Z,3.50
2018-08-12T01:30:23.169Z,3.50
2018-08-12T01:32:52.379Z,5.17
2018-08-12T01:35:21.528Z,3.93
2018-08-12T01:37:50.705Z,3.40
2018-08-12T01:40:20.457Z,3.20
2018-08-12T01:42:49.636Z,3.23
2018-08-12T01:45:20.594Z,3.37
2018-08-12T01:47:49.771Z,3.77
2018-08-12T01:50:19.881Z,3.03
2018-08-12T01:52:49.037Z,3.50
2018-08-12T01:55:18.401Z,3.80
2018-08-12T01:57:47.605Z,3.10
2018-08-12T02:00:19.269Z,3.37
2018-08-12T02:02:48.762Z,3.87
2018-08-12T02:05:18.444Z,3.77
2018-08-12T02:07:47.753Z,3.40
2018-08-12T02:10:16.922Z,3.43
2018-08-12T02:12:46.076Z,3.07
2018-08-12T02:15:15.294Z,4.40
2018-08-12T02:17:44.454Z,3.50
2018-08-12T02:20:13.720Z,3.30
2018-08-12T02:22:43.230Z,3.37
2018-08-12T02:25:12.773Z,3.10
2018-08-12T02:27:41.930Z,3.43
2018-08-12T02:30:12.769Z,3.40
2018-08-12T02:32:42.981Z,3.33
2018-08-12T02:35:12.207Z,4.63
2018-08-12T02:37:42.669Z,3.57
2018-08-12T02:40:15.073Z,3.70
2018-08-12T02:42:44.243Z,3.40
2018-08-12T02:45:15.745Z,3.73
2018-08-12T02:47:45.132Z,3.47
2018-08-12T02:50:14.393Z,4.53
2018-08-12T02:52:43.585Z,3.70
2018-08-12T02:55:12.821Z,3.37
2018-08-12T02:57:42.006Z,5.50
2018-08-12T03:00:12.677Z,3.70
2018-08-12T03:02:41.881Z,5.33
2018-08-12T03:05:11.101Z,5.93
2018-08-12T03:07:40.306Z,3.90
2018-08-12T03:10:09.868Z,3.63
2018-08-12T03:12:39.178Z,3.40
2018-08-12T03:15:10.226Z,6.13
2018-08-12T03:17:39.621Z,3.10
2018-08-12T03:20:10.723Z,4.60
2018-08-12T03:22:39.909Z,3.53
2018-08-12T03:25:15.262Z,4.60
2018-08-12T03:27:44.434Z,3.80
2018-08-12T03:30:13.680Z,2.93
2018-08-12T03:32:42.777Z,3.93
2018-08-12T03:35:11.963Z,3.77
2018-08-12T03:37:41.139Z,3.33
2018-08-12T03:40:12.970Z,3.80
2018-08-12T03:42:42.741Z,3.20
2018-08-12T03:45:11.924Z,4.43
2018-08-12T03:47:41.109Z,3.13
2018-08-12T03:50:11.391Z,3.40
2018-08-12T03:52:40.764Z,4.30
2018-08-12T03:55:16.569Z,4.93
2018-08-12T03:57:45.760Z,3.20
2018-08-12T04:00:19.771Z,3.97
2018-08-12T04:02:49.489Z,3.10
2018-08-12T04:05:19.049Z,2.97
2018-08-12T04:07:48.216Z,4.07
2018-08-12T04:10:17.383Z,3.60
2018-08-12T04:12:46.618Z,4.50
2018-08-12T04:15:15.784Z,3.70
2018-08-12T04:17:45.001Z,3.10
2018-08-12T04:20:14.169Z,3.20
2018-08-12T04:22:43.380Z,2.93
2018-08-12T04:25:12.560Z,3.67
2018-08-12T04:27:41.740Z,3.20
2018-08-12T04:30:11.541Z,3.87
2018-08-12T04:32:40.933Z,4.07
2018-08-12T04:35:10.132Z,4.00
2018-08-12T04:37:39.351Z,3.30
2018-08-12T04:40:08.729Z,3.93
2018-08-12T04:42:38.012Z,3.27
2018-08-12T04:45:07.432Z,4.63
2018-08-12T04:47:36.848Z,3.47
2018-08-12T04:50:06.696Z,3.27
2018-08-12T04:52:36.149Z,5.63
2018-08-12T04:55:05.984Z,3.73
2018-08-12T04:57:35.148Z,4.33
2018-08-12T05:00:05.325Z,2.93
2018-08-12T05:02:34.508Z,3.10
2018-08-12T05:05:03.754Z,3.37
2018-08-12T05:07:32.992Z,5.03
2018-08-12T05:10:02.144Z,5.83
2018-08-12T05:12:31.347Z,3.53
2018-08-12T05:15:00.541Z,3.87
2018-08-12T05:17:29.745Z,3.00
2018-08-12T05:19:58.974Z,2.93
2018-08-12T05:22:28.156Z,4.50
2018-08-12T05:24:57.333Z,3.30
2018-08-12T05:27:26.512Z,3.50
2018-08-12T05:29:55.717Z,3.07
2018-08-12T05:32:24.893Z,3.77
2018-08-12T05:34:54.093Z,3.40
2018-08-12T05:37:23.259Z,3.43
2018-08-12T05:39:52.502Z,3.23
2018-08-12T05:42:21.798Z,3.07
2018-08-12T05:44:51.006Z,3.03
2018-08-12T05:47:20.240Z,3.77
2018-08-12T05:49:49.408Z,3.40
2018-08-12T05:52:18.611Z,3.10
2018-08-12T05:54:47.762Z,4.60
2018-08-12T05:57:17.001Z,4.33
2018-08-12T05:59:46.105Z,3.30
2018-08-12T06:02:15.268Z,4.83
2018-08-12T06:04:44.571Z,3.50
2018-08-12T06:07:13.717Z,3.73
2018-08-12T06:09:42.921Z,4.30
2018-08-12T06:12:12.106Z,5.20
2018-08-12T06:14:41.281Z,3.53
2018-08-12T06:17:10.441Z,4.07
2018-08-12T06:19:39.608Z,2.83
2018-08-12T06:22:08.822Z,4.13
2018-08-12T06:24:37.990Z,3.03
2018-08-12T06:27:07.221Z,3.23
2018-08-12T06:29:36.417Z,4.87
2018-08-12T06:32:05.604Z,4.77
2018-08-12T06:34:34.777Z,2.77
2018-08-12T06:37:04.010Z,4.03
2018-08-12T06:39:33.232Z,3.00
2018-08-12T06:42:02.388Z,3.27
2018-08-12T06:44:31.555Z,4.27
2018-08-12T06:47:00.773Z,4.50
2018-08-12T06:49:29.958Z,3.60
2018-08-12T06:51:59.187Z,8.60
2018-08-12T06:54:28.301Z,3.37
2018-08-12T06:56:57.497Z,2.40
2018-08-12T06:59:26.662Z,2.67
2018-08-12T07:01:55.836Z,2.60
2018-08-12T07:04:25.007Z,4.50
2018-08-12T07:06:54.220Z,2.63
2018-08-12T07:09:23.433Z,3.57
2018-08-12T07:11:52.783Z,2.43
2018-08-12T07:14:22.038Z,2.50
2018-08-12T07:16:51.207Z,3.63
2018-08-12T07:19:20.361Z,2.93
2018-08-12T07:21:49.773Z,3.93
2018-08-12T07:24:18.981Z,3.67
2018-08-12T07:26:48.198Z,2.80
2018-08-12T07:29:17.621Z,2.90
2018-08-12T07:31:46.794Z,2.90
2018-08-12T07:34:15.992Z,2.87
2018-08-12T07:36:45.169Z,3.07
2018-08-12T07:39:14.329Z,2.80
2018-08-12T07:41:43.487Z,4.30
2018-08-12T07:44:12.693Z,2.67
2018-08-12T07:46:41.855Z,4.10
2018-08-12T07:49:11.061Z,3.33
2018-08-12T07:51:40.243Z,4.53
2018-08-12T07:54:09.440Z,4.50
2018-08-12T07:56:38.597Z,2.60
2018-08-12T07:59:07.767Z,3.20
2018-08-12T08:01:36.955Z,2.90
2018-08-12T08:04:06.125Z,3.33
2018-08-12T08:06:35.325Z,2.50
2018-08-12T08:09:07.705Z,2.30
2018-08-12T08:11:37.309Z,4.00
2018-08-12T08:14:06.698Z,2.90
2018-08-12T08:16:35.909Z,10.83
2018-08-12T08:19:05.083Z,11.90
2018-08-12T08:21:34.263Z,2.90
2018-08-12T08:24:03.470Z,2.80
2018-08-12T08:26:32.637Z,4.15
2018-08-12T08:29:01.801Z,2.93
2018-08-12T08:31:31.054Z,2.05
2018-08-12T08:34:00.176Z,2.60
2018-08-12T08:36:29.336Z,2.15
2018-08-12T08:38:58.532Z,2.20
2018-08-12T08:41:27.725Z,3.27
2018-08-12T08:43:56.977Z,3.85
2018-08-12T08:46:26.149Z,2.20
2018-08-12T08:48:55.684Z,2.12
2018-08-12T08:51:24.875Z,2.75
2018-08-12T08:53:54.057Z,4.37
2018-08-12T08:56:23.233Z,3.67
2018-08-12T08:58:52.413Z,1.77
2018-08-12T09:01:21.650Z,2.60
2018-08-12T09:03:50.793Z,1.90
2018-08-12T09:06:19.964Z,1.90
2018-08-12T09:08:49.262Z,1.70
2018-08-12T09:11:18.309Z,1.82
2018-08-12T09:13:47.517Z,1.70
2018-08-12T09:16:16.708Z,1.82
2018-08-12T09:18:45.864Z,5.05
2018-08-12T09:21:15.082Z,1.62
2018-08-12T09:23:44.253Z,2.85
2018-08-12T09:26:13.482Z,4.97
2018-08-12T09:28:42.680Z,3.30
2018-08-12T09:31:11.866Z,2.08
2018-08-12T09:33:41.071Z,2.87
2018-08-12T09:36:10.231Z,2.58
2018-08-12T09:38:39.438Z,3.20
2018-08-12T09:41:08.689Z,5.78
2018-08-12T09:43:37.951Z,2.22
2018-08-12T09:46:07.374Z,1.70
2018-08-12T09:48:36.583Z,2.20
2018-08-12T09:51:05.781Z,1.80
2018-08-12T09:53:34.969Z,2.20
2018-08-12T09:56:04.133Z,2.92
2018-08-12T09:58:33.425Z,12.85
2018-08-12T10:01:02.582Z,2.67
2018-08-12T10:03:31.797Z,5.30
2018-08-12T10:06:01.049Z,1.90
2018-08-12T10:08:30.209Z,3.65
2018-08-12T10:10:59.422Z,8.30
2018-08-12T10:13:28.596Z,2.37
2018-08-12T10:15:57.802Z,2.87
2018-08-12T10:18:26.984Z,4.53
2018-08-12T10:20:56.155Z,3.12
2018-08-12T10:23:25.312Z,2.65
2018-08-12T10:25:54.492Z,2.65
2018-08-12T10:28:23.689Z,1.95
2018-08-12T10:30:52.914Z,12.30
2018-08-12T10:33:22.093Z,3.08
2018-08-12T10:35:51.322Z,6.12
2018-08-12T10:38:20.492Z,26.62
2018-08-12T10:40:49.713Z,7.72
2018-08-12T10:43:18.897Z,3.92
2018-08-12T10:45:48.096Z,2.65
2018-08-12T10:48:17.284Z,4.97
2018-08-12T10:50:46.627Z,3.20
2018-08-12T10:53:15.774Z,2.20
2018-08-12T10:55:44.969Z,1.90
2018-08-12T10:58:14.146Z,4.78
2018-08-12T11:00:43.325Z,6.80
2018-08-12T11:03:12.621Z,2.67
2018-08-12T11:05:41.993Z,2.33
2018-08-12T11:08:11.214Z,2.08
2018-08-12T11:10:40.392Z,2.22
2018-08-12T11:13:09.565Z,3.08
2018-08-12T11:15:38.745Z,2.90
2018-08-12T11:18:08.017Z,2.40
2018-08-12T11:20:37.377Z,2.40
2018-08-12T11:23:06.769Z,3.37
2018-08-12T11:25:35.998Z,3.65
2018-08-12T11:28:05.216Z,2.62
2018-08-12T11:30:34.484Z,2.33
2018-08-12T11:33:03.701Z,3.35
2018-08-12T11:35:32.873Z,2.70
2018-08-12T11:38:02.096Z,3.72
2018-08-12T11:40:31.317Z,2.47
2018-08-12T11:43:00.484Z,3.50
2018-08-12T11:45:29.777Z,2.17
2018-08-12T11:47:58.985Z,2.58
2018-08-12T11:50:28.202Z,2.08
2018-08-12T11:52:57.465Z,2.83
2018-08-12T11:58:06.903Z,1.82
2018-08-12T12:00:36.069Z,2.40
2018-08-12T12:03:05.253Z,2.47
2018-08-12T12:05:34.506Z,2.33
2018-08-12T12:08:03.717Z,2.65
2018-08-12T12:10:32.913Z,2.02
2018-08-12T12:13:02.110Z,2.00
2018-08-12T12:15:31.313Z,2.15
2018-08-12T12:18:00.524Z,2.58
2018-08-12T12:20:29.746Z,2.72
2018-08-12T12:22:58.899Z,7.55
2018-08-12T12:25:28.079Z,2.20
2018-08-12T12:27:57.263Z,2.27
2018-08-12T12:30:26.490Z,2.00
2018-08-12T12:32:55.684Z,4.08
2018-08-12T12:35:24.914Z,1.98
2018-08-12T12:37:54.049Z,3.12
2018-08-12T12:40:23.270Z,2.72
2018-08-12T12:42:52.444Z,2.62
2018-08-12T12:45:21.628Z,2.95
2018-08-12T12:47:50.839Z,1.90
2018-08-12T12:50:22.305Z,2.12
2018-08-12T12:52:52.294Z,3.17
2018-08-12T12:55:22.637Z,2.27
2018-08-12T12:57:51.842Z,3.62
2018-08-12T13:00:21.857Z,3.33
2018-08-12T13:02:51.785Z,2.05
2018-08-12T13:05:21.898Z,1.92
2018-08-12T13:07:51.377Z,2.50
2018-08-12T13:10:21.085Z,2.70
2018-08-12T13:12:50.393Z,1.65
2018-08-12T13:15:19.552Z,3.17
2018-08-12T13:17:48.752Z,3.20
2018-08-12T13:20:19.004Z,2.55
2018-08-12T13:22:49.039Z,2.70
2018-08-12T13:25:20.164Z,2.15
2018-08-12T13:27:49.421Z,3.25
2018-08-12T13:30:19.682Z,1.92
2018-08-12T13:32:49.598Z,2.33
2018-08-12T13:35:18.828Z,2.92
2018-08-12T13:37:48.045Z,2.10
2018-08-12T13:40:17.826Z,2.20
2018-08-12T13:42:47.534Z,5.00
2018-08-12T13:45:16.872Z,2.20
2018-08-12T13:47:46.975Z,3.45
2018-08-12T13:50:22.584Z,2.50
2018-08-12T13:52:52.325Z,3.40
2018-08-12T13:55:22.402Z,2.17
2018-08-12T13:57:52.446Z,2.17
2018-08-12T14:00:22.957Z,2.15
2018-08-12T14:02:52.142Z,1.77
2018-08-12T14:05:21.625Z,1.90
2018-08-12T14:07:51.397Z,2.12
2018-08-12T14:10:20.585Z,3.62
2018-08-12T14:12:49.789Z,2.30
2018-08-12T14:15:19.930Z,3.62
2018-08-12T14:17:49.942Z,2.70
2018-08-12T14:20:20.217Z,2.77
2018-08-12T14:22:49.408Z,2.55
2018-08-12T14:25:18.592Z,2.30
2018-08-12T14:27:47.778Z,1.80
2018-08-12T14:30:19.373Z,3.05
2018-08-12T14:32:49.225Z,2.10
2018-08-12T14:35:18.606Z,3.12
2018-08-12T14:37:47.818Z,2.85
2018-08-12T14:40:17.034Z,2.15
2018-08-12T14:42:46.245Z,2.12
2018-08-12T14:45:16.441Z,2.27
2018-08-12T14:47:46.021Z,2.85
2018-08-12T14:50:19.564Z,2.65
2018-08-12T14:52:48.782Z,2.77
2018-08-12T14:55:19.865Z,2.50
2018-08-12T14:57:49.123Z,3.72
2018-08-12T15:00:20.038Z,2.20
2018-08-12T15:02:50.396Z,2.55
2018-08-12T15:05:20.041Z,3.45
2018-08-12T15:07:49.267Z,2.30
2018-08-12T15:10:18.413Z,1.92
2018-08-12T15:12:47.645Z,2.27
2018-08-12T15:15:17.383Z,2.20
2018-08-12T15:17:47.025Z,3.75
2018-08-12T15:20:16.980Z,2.20
2018-08-12T15:22:46.252Z,2.30
2018-08-12T15:25:18.158Z,4.87
2018-08-12T15:27:47.724Z,2.47
2018-08-12T15:30:16.929Z,3.10
2018-08-12T15:32:46.173Z,2.60
2018-08-12T15:35:15.364Z,2.27
2018-08-12T15:37:44.572Z,2.60
2018-08-12T15:40:15.237Z,2.45
2018-08-12T15:42:44.784Z,3.02
2018-08-12T15:45:15.372Z,3.25
2018-08-12T15:47:45.205Z,3.22
2018-08-12T15:50:14.629Z,2.77
2018-08-12T15:52:45.154Z,2.27
2018-08-12T15:55:14.627Z,2.58
2018-08-12T15:57:43.817Z,2.90
2018-08-12T16:00:16.940Z,2.50
2018-08-12T16:02:46.456Z,2.30
2018-08-12T16:05:15.702Z,3.27
2018-08-12T16:07:45.824Z,2.37
2018-08-12T16:10:18.919Z,3.52
2018-08-12T16:12:49.109Z,3.40
2018-08-12T16:15:18.317Z,2.60
2018-08-12T16:17:47.485Z,3.50
2018-08-12T16:20:16.674Z,2.47
2018-08-12T16:22:45.825Z,3.30
2018-08-12T16:25:18.370Z,2.60
2018-08-12T16:27:47.561Z,4.10
2018-08-12T16:30:18.257Z,3.02
2018-08-12T16:32:47.657Z,2.30
2018-08-12T16:35:17.692Z,2.95
2018-08-12T16:37:47.582Z,2.92
2018-08-12T16:40:19.038Z,3.47
2018-08-12T16:42:48.516Z,2.95
2018-08-12T16:45:18.274Z,2.77
2018-08-12T16:47:47.803Z,3.22
2018-08-12T16:50:16.967Z,2.70
2018-08-12T16:52:46.371Z,3.42
2018-08-12T16:55:17.288Z,2.50
2018-08-12T16:57:47.109Z,3.00
2018-08-12T17:00:18.732Z,3.33
2018-08-12T17:02:48.356Z,2.40
2018-08-12T17:05:20.229Z,4.03
2018-08-12T17:07:49.716Z,2.50
2018-08-12T17:10:19.566Z,2.25
2018-08-12T17:12:48.773Z,2.30
2018-08-12T17:15:19.574Z,2.40
2018-08-12T17:17:49.096Z,4.30
2018-08-12T17:20:20.124Z,3.58
2018-08-12T17:22:49.505Z,2.92
2018-08-12T17:25:18.829Z,2.60
2018-08-12T17:27:47.993Z,3.08
2018-08-12T17:30:17.835Z,3.83
2018-08-12T17:32:46.994Z,4.70
2018-08-12T17:35:16.181Z,2.42
2018-08-12T17:37:45.922Z,2.42
2018-08-12T17:40:15.812Z,2.55
2018-08-12T17:42:44.985Z,2.30
2018-08-12T17:45:14.841Z,2.20
2018-08-12T17:47:44.152Z,2.65
2018-08-12T17:50:14.664Z,2.55
2018-08-12T17:52:43.890Z,3.08
2018-08-12T17:55:13.065Z,5.35
2018-08-12T17:57:42.261Z,4.12
2018-08-12T18:00:14.133Z,2.98
2018-08-12T18:02:43.463Z,2.87
2018-08-12T18:05:12.625Z,3.47
2018-08-12T18:07:42.188Z,3.60
2018-08-12T18:10:11.371Z,14.28
2018-08-12T18:12:40.527Z,10.93
2018-08-12T18:15:11.477Z,8.38
2018-08-12T18:17:41.274Z,16.75
2018-08-12T18:20:10.738Z,24.57
2018-08-12T18:22:39.942Z,26.35
2018-08-12T18:25:11.022Z,28.47
2018-08-12T18:27:40.376Z,26.65
2018-08-12T18:30:12.422Z,24.80
2018-08-12T18:32:41.934Z,15.00
2018-08-12T18:35:11.760Z,15.13
2018-08-12T18:37:41.129Z,9.60
2018-08-12T18:40:11.551Z,11.60
2018-08-12T18:42:40.753Z,6.47
2018-08-12T18:45:09.929Z,6.67
2018-08-12T18:47:39.145Z,9.65
2018-08-12T18:50:10.142Z,7.08
2018-08-12T18:52:39.680Z,7.60
2018-08-12T18:55:11.009Z,6.12
2018-08-12T18:57:40.226Z,6.40
2018-08-12T19:00:12.366Z,4.12
2018-08-12T19:02:41.627Z,4.72
2018-08-12T19:05:11.922Z,5.55
2018-08-12T19:07:41.137Z,4.50
2018-08-12T19:10:11.205Z,5.37
2018-08-12T19:12:41.022Z,6.90
2018-08-12T19:15:11.257Z,5.75
2018-08-12T19:17:40.764Z,3.72
2018-08-12T19:20:10.873Z,4.67
2018-08-12T19:22:40.285Z,5.62
2018-08-12T19:25:10.388Z,3.40
2018-08-12T19:27:39.588Z,3.80
2018-08-12T19:30:11.632Z,6.05
2018-08-12T19:32:40.845Z,4.22
2018-08-12T19:35:10.793Z,4.85
2018-08-12T19:37:40.037Z,5.42
2018-08-12T19:40:09.670Z,4.33
2018-08-12T19:42:39.201Z,4.00
2018-08-12T19:45:10.013Z,4.00
2018-08-12T19:47:39.155Z,3.60
2018-08-12T19:50:08.897Z,4.65
2018-08-12T19:52:38.146Z,4.00
2018-08-12T19:55:07.946Z,4.08
2018-08-12T19:57:37.177Z,4.42
2018-08-12T20:00:09.347Z,3.72
2018-08-12T20:02:38.485Z,4.95
2018-08-12T20:05:07.780Z,4.15
2018-08-12T20:07:36.984Z,4.58
2018-08-12T20:10:07.989Z,4.22
2018-08-12T20:12:37.186Z,4.67
2018-08-12T20:15:08.545Z,4.25
2018-08-12T20:17:37.885Z,5.65
2018-08-12T20:20:09.109Z,5.10
2018-08-12T20:22:38.333Z,4.83
2018-08-12T20:25:07.936Z,5.35
2018-08-12T20:27:37.124Z,5.05
2018-08-12T20:30:09.270Z,5.85
2018-08-12T20:32:38.441Z,6.47
2018-08-12T20:35:07.672Z,5.20
2018-08-12T20:37:36.857Z,6.67
2018-08-12T20:40:07.337Z,5.97
2018-08-12T20:42:36.552Z,4.90
2018-08-12T20:45:06.293Z,6.05
2018-08-12T20:47:35.665Z,5.47
2018-08-12T20:50:06.161Z,4.47
2018-08-12T20:52:35.513Z,4.47
2018-08-12T20:55:05.069Z,5.60
2018-08-12T20:57:34.277Z,5.62
2018-08-12T21:00:03.469Z,5.15
2018-08-12T21:02:32.649Z,5.28
2018-08-12T21:05:01.877Z,6.28
2018-08-12T21:07:31.189Z,6.40
2018-08-12T21:10:00.373Z,5.15
2018-08-12T21:12:29.565Z,6.03
2018-08-12T21:14:58.809Z,5.47
2018-08-12T21:17:28.014Z,4.60
2018-08-12T21:19:57.245Z,6.87
2018-08-12T21:22:26.477Z,5.37
2018-08-12T21:24:55.694Z,6.33
2018-08-12T21:27:24.873Z,6.22
2018-08-12T21:29:54.075Z,5.47
2018-08-12T21:32:23.257Z,7.25
2018-08-12T21:34:52.484Z,6.08
2018-08-12T21:37:21.692Z,5.72
2018-08-12T21:39:50.962Z,9.43
2018-08-12T21:42:20.133Z,5.22
2018-08-12T21:44:49.328Z,5.13
2018-08-12T21:47:18.583Z,6.70
2018-08-12T21:49:47.785Z,7.37
2018-08-12T21:52:16.949Z,5.90
2018-08-12T21:54:46.154Z,5.45
2018-08-12T21:57:15.360Z,6.37
2018-08-12T21:59:44.519Z,5.80
2018-08-12T22:02:13.705Z,7.72
2018-08-12T22:04:42.873Z,5.10
2018-08-12T22:07:12.061Z,6.83
2018-08-12T22:09:41.237Z,5.20
2018-08-12T22:12:10.427Z,4.90
2018-08-12T22:14:39.589Z,5.77
2018-08-12T22:17:08.789Z,5.53
2018-08-12T22:19:37.997Z,4.43
2018-08-12T22:22:07.217Z,5.50
2018-08-12T22:24:36.440Z,4.70
2018-08-12T22:27:05.668Z,4.73
2018-08-12T22:29:35.077Z,4.67
2018-08-12T22:32:04.253Z,4.40
2018-08-12T22:34:33.444Z,4.47
2018-08-12T22:37:02.604Z,4.47
2018-08-12T22:39:31.789Z,4.10
2018-08-12T22:42:01.030Z,4.65
2018-08-12T22:44:30.469Z,4.47
2018-08-12T22:46:59.670Z,4.83
2018-08-12T22:49:28.873Z,4.77
2018-08-12T22:51:58.043Z,5.15
2018-08-12T22:54:27.212Z,4.70
2018-08-12T22:56:56.380Z,4.40
2018-08-12T22:59:25.545Z,4.30
2018-08-12T23:01:54.773Z,4.10
2018-08-12T23:04:23.986Z,4.57
2018-08-12T23:06:53.152Z,4.40
2018-08-12T23:09:22.350Z,4.60
2018-08-12T23:11:51.777Z,4.27
2018-08-12T23:14:20.977Z,4.30
2018-08-12T23:17:00.625Z,4.70
2018-08-12T23:19:30.080Z,5.00
2018-08-12T23:21:59.512Z,4.43
2018-08-12T23:24:28.672Z,4.67
2018-08-12T23:26:57.854Z,5.07
2018-08-12T23:29:27.055Z,4.73
2018-08-12T23:31:56.337Z,4.87
2018-08-12T23:34:25.505Z,4.13
2018-08-12T23:36:54.657Z,4.53
2018-08-12T23:39:23.825Z,5.07
2018-08-12T23:41:52.988Z,4.67
2018-08-12T23:44:22.156Z,5.40
2018-08-12T23:46:51.353Z,4.80
2018-08-12T23:49:20.543Z,4.40
2018-08-12T23:51:49.745Z,4.57
2018-08-12T23:54:18.941Z,5.53
2018-08-12T23:56:48.097Z,5.03
2018-08-12T23:59:17.278Z,4.70
